Pagina principală
METAR-TAF:

METAR-TAF

Aeroporturi :

Port Angeles, Washington, Statele Unite ale Americii

Latitudine: 48-08-27N, longitudine: 123-24-39W, elevație: 4 m

Observații meteo curente

Raportul a fost făcut în urmă cu 38 de minute, la 09:35 UTC
Vânt 5 kt de la Vest
Temperatură 14°C
Umiditate 94%
Presiune 1013 hPa
Vizibilitate: 16.1 km
Cer senin

METAR: KNOW 170935Z AUTO 28005KT 10SM CLR 14/13 A2992 RMK AO2 T01420132

Ora: 03:13 (10:13 UTC)


TAF: lipsă

Observații și prognoze meteo pentru peste 4.000 de aeroporturi (rapoarte METAR și TAF).

Stațiile disponibile sunt reprezentate pe hartă prin puncte galbene și roșii.

Țineți indicatorul mouse-ului pe punctul dorit pentru a vedea denumirea stației.

Apoi, faceți clic pentru a vedea observațiile și prognozele meteorologice.

Pentru a schimba harta: Pentru mărire, faceți clic pe butoanele verzi cu cruce neagră; pentru micșorare, pe butonul verde cu o liniuță; pentru hărți învecinate, pe săgețile verzi.


METAR-TAF: